createdAt,value
2017-12-03T00:01:26.187Z,80.53
2017-12-03T00:04:00.419Z,80.73
2017-12-03T00:06:34.845Z,80.56
2017-12-03T00:09:09.343Z,80.75
2017-12-03T00:11:44.001Z,80.57
2017-12-03T00:14:18.492Z,80.79
2017-12-03T00:16:52.935Z,80.91
2017-12-03T00:19:27.517Z,81.08
2017-12-03T00:22:01.910Z,81.16
2017-12-03T00:24:36.562Z,81.10
2017-12-03T00:27:10.985Z,81.00
2017-12-03T00:29:45.470Z,80.89
2017-12-03T00:32:19.853Z,80.82
2017-12-03T00:34:54.518Z,80.95
2017-12-03T00:37:29.091Z,80.94
2017-12-03T00:40:13.397Z,81.14
2017-12-03T00:42:47.895Z,81.39
2017-12-03T00:45:22.553Z,81.28
2017-12-03T00:47:57.234Z,81.19
2017-12-03T00:50:31.702Z,81.05
2017-12-03T00:53:06.205Z,80.73
2017-12-03T00:55:40.645Z,81.03
2017-12-03T00:58:15.198Z,80.76
2017-12-03T01:00:49.562Z,80.99
2017-12-03T01:03:24.138Z,81.12
2017-12-03T01:05:58.514Z,80.96
2017-12-03T01:08:33.337Z,81.04
2017-12-03T01:11:07.858Z,81.21
2017-12-03T01:13:42.330Z,81.18
2017-12-03T01:16:17.008Z,81.10
2017-12-03T01:18:51.590Z,81.17
2017-12-03T01:21:26.274Z,81.37
2017-12-03T01:24:01.078Z,81.17
2017-12-03T01:26:35.641Z,81.22
2017-12-03T01:29:10.435Z,81.21
2017-12-03T01:31:45.212Z,81.63
2017-12-03T01:34:19.794Z,81.74
2017-12-03T01:36:54.286Z,81.72
2017-12-03T01:39:28.770Z,81.95
2017-12-03T01:42:03.254Z,82.07
2017-12-03T01:44:37.822Z,82.09
2017-12-03T01:47:12.615Z,81.97
2017-12-03T01:49:47.110Z,82.25
2017-12-03T01:52:21.566Z,82.27
2017-12-03T01:54:56.248Z,82.14
2017-12-03T01:57:30.618Z,82.27
2017-12-03T02:00:06.085Z,82.30
2017-12-03T02:02:40.686Z,82.44
2017-12-03T02:05:14.807Z,82.42
2017-12-03T02:07:49.105Z,82.34
2017-12-03T02:10:23.790Z,82.32
2017-12-03T02:12:58.294Z,82.41
2017-12-03T02:15:32.682Z,82.46
2017-12-03T02:18:07.085Z,82.65
2017-12-03T02:20:41.126Z,82.53
2017-12-03T02:23:15.650Z,82.47
2017-12-03T02:25:50.073Z,82.52
2017-12-03T02:28:24.558Z,82.50
2017-12-03T02:30:59.242Z,82.37
2017-12-03T02:33:33.747Z,82.41
2017-12-03T02:36:08.135Z,82.45
2017-12-03T02:38:42.627Z,82.42
2017-12-03T02:41:17.078Z,82.42
2017-12-03T02:43:51.624Z,82.51
2017-12-03T02:46:26.257Z,82.54
2017-12-03T02:49:01.028Z,82.50
2017-12-03T02:51:35.154Z,82.29
2017-12-03T02:54:09.714Z,82.18
2017-12-03T02:56:44.078Z,82.22
2017-12-03T02:59:18.938Z,82.21
2017-12-03T03:01:53.422Z,82.36
2017-12-03T03:04:28.175Z,82.30
2017-12-03T03:07:02.851Z,82.37
2017-12-03T03:09:37.342Z,82.18
2017-12-03T03:12:11.792Z,82.23
2017-12-03T03:14:46.278Z,82.05
2017-12-03T03:17:20.645Z,82.14
2017-12-03T03:19:55.209Z,82.33
2017-12-03T03:22:29.582Z,82.26
2017-12-03T03:25:13.501Z,81.82
2017-12-03T03:27:48.090Z,81.83
2017-12-03T03:30:22.540Z,81.68
2017-12-03T03:32:56.906Z,81.32
2017-12-03T03:35:31.264Z,81.37
2017-12-03T03:38:05.599Z,81.23
2017-12-03T03:40:40.173Z,81.07
2017-12-03T03:43:15.010Z,80.54
2017-12-03T03:45:49.437Z,80.80
2017-12-03T03:48:23.943Z,81.11
2017-12-03T03:50:58.335Z,80.86
2017-12-03T03:53:32.859Z,80.79
2017-12-03T03:56:06.970Z,80.78
2017-12-03T03:58:41.414Z,80.75
2017-12-03T04:01:15.537Z,80.84
2017-12-03T04:03:49.702Z,80.92
2017-12-03T04:06:24.086Z,80.54
2017-12-03T04:08:58.627Z,80.80
2017-12-03T04:11:32.658Z,80.78
2017-12-03T04:14:08.244Z,80.66
2017-12-03T04:16:42.586Z,80.39
2017-12-03T04:19:17.193Z,80.21
2017-12-03T04:21:51.513Z,80.02
2017-12-03T04:24:26.013Z,80.46
2017-12-03T04:27:00.287Z,80.37
2017-12-03T04:29:34.818Z,80.33
2017-12-03T04:32:09.065Z,80.31
2017-12-03T04:34:43.374Z,80.18
2017-12-03T04:37:17.220Z,80.27
2017-12-03T04:39:51.261Z,80.52
2017-12-03T04:42:25.387Z,80.11
2017-12-03T04:44:59.378Z,80.54
2017-12-03T04:47:33.467Z,80.88
2017-12-03T04:50:11.516Z,80.95
2017-12-03T04:52:45.683Z,81.05
2017-12-03T04:55:20.062Z,81.02
2017-12-03T04:57:54.580Z,80.92
2017-12-03T05:00:28.994Z,80.61
2017-12-03T05:03:03.503Z,80.71
2017-12-03T05:05:37.493Z,80.61
2017-12-03T05:08:11.567Z,80.24
2017-12-03T05:10:45.477Z,80.49
2017-12-03T05:13:19.725Z,80.38
2017-12-03T05:15:53.766Z,80.31
2017-12-03T05:18:27.870Z,80.26
2017-12-03T05:21:01.894Z,80.25
2017-12-03T05:23:36.147Z,80.41
2017-12-03T05:26:10.187Z,80.18
2017-12-03T05:28:44.686Z,79.87
2017-12-03T05:31:18.723Z,80.24
2017-12-03T05:33:52.838Z,80.12
2017-12-03T05:36:26.885Z,79.96
2017-12-03T05:39:01.446Z,79.92
2017-12-03T05:41:35.930Z,80.39
2017-12-03T05:44:10.105Z,80.30
2017-12-03T05:46:44.132Z,80.28
2017-12-03T05:49:18.637Z,80.47
2017-12-03T05:51:52.668Z,80.55
2017-12-03T05:54:26.852Z,80.30
2017-12-03T05:57:01.467Z,80.26
2017-12-03T05:59:35.654Z,80.05
2017-12-03T06:02:09.698Z,80.30
2017-12-03T06:04:43.879Z,80.13
2017-12-03T06:07:17.930Z,80.18
2017-12-03T06:09:52.075Z,80.16
2017-12-03T06:12:26.166Z,79.94
2017-12-03T06:15:00.734Z,79.55
2017-12-03T06:17:35.212Z,79.64
2017-12-03T06:20:16.385Z,79.41
2017-12-03T06:22:50.458Z,79.28
2017-12-03T06:25:24.558Z,79.14
2017-12-03T06:27:58.953Z,79.11
2017-12-03T06:30:33.007Z,79.21
2017-12-03T06:33:07.117Z,79.06
2017-12-03T06:35:41.514Z,78.77
2017-12-03T06:38:16.044Z,78.83
2017-12-03T06:40:50.070Z,78.82
2017-12-03T06:43:24.227Z,78.65
2017-12-03T06:45:58.338Z,78.47
2017-12-03T06:48:32.898Z,78.82
2017-12-03T06:51:07.058Z,78.48
2017-12-03T06:53:41.639Z,78.65
2017-12-03T06:56:16.093Z,78.75
2017-12-03T06:58:50.374Z,77.81
2017-12-03T07:01:24.407Z,77.32
2017-12-03T07:03:58.639Z,76.30
2017-12-03T07:06:32.749Z,77.02
2017-12-03T07:09:07.274Z,76.50
2017-12-03T07:11:41.322Z,76.61
2017-12-03T07:14:15.450Z,76.33
2017-12-03T07:16:49.849Z,75.24
2017-12-03T07:19:24.334Z,75.28
2017-12-03T07:21:58.227Z,75.14
2017-12-03T07:24:32.406Z,75.24
2017-12-03T07:27:06.362Z,74.21
2017-12-03T07:29:40.858Z,74.76
2017-12-03T07:32:15.001Z,74.39
2017-12-03T07:34:49.397Z,73.88
2017-12-03T07:37:23.842Z,73.92
2017-12-03T07:39:59.079Z,73.90
2017-12-03T07:42:33.701Z,71.97
2017-12-03T07:45:14.574Z,72.85
2017-12-03T07:47:48.701Z,72.64
2017-12-03T07:50:22.738Z,72.44
2017-12-03T07:52:57.268Z,72.29
2017-12-03T07:55:31.298Z,72.14
2017-12-03T07:58:05.613Z,72.40
2017-12-03T08:00:40.142Z,72.53
2017-12-03T08:03:14.533Z,72.49
2017-12-03T08:05:48.906Z,72.66
2017-12-03T08:08:23.122Z,73.12
2017-12-03T08:10:58.814Z,73.38
2017-12-03T08:13:32.866Z,73.00
2017-12-03T08:16:06.973Z,72.56
2017-12-03T08:18:41.153Z,73.14
2017-12-03T08:21:15.347Z,73.25
2017-12-03T08:23:49.621Z,73.48
2017-12-03T08:26:23.563Z,73.14
2017-12-03T08:28:57.475Z,73.67
2017-12-03T08:31:31.978Z,73.05
2017-12-03T08:34:06.598Z,73.60
2017-12-03T08:36:40.719Z,74.04
2017-12-03T08:39:15.158Z,73.83
2017-12-03T08:41:49.734Z,74.52
2017-12-03T08:44:23.894Z,74.53
2017-12-03T08:46:57.928Z,74.34
2017-12-03T08:49:32.301Z,74.74
2017-12-03T08:52:06.534Z,74.82
2017-12-03T08:54:40.800Z,74.30
2017-12-03T08:57:15.192Z,74.10
2017-12-03T08:59:49.367Z,74.36
2017-12-03T09:02:23.454Z,74.19
2017-12-03T09:04:57.633Z,74.57
2017-12-03T09:07:31.682Z,74.74
2017-12-03T09:10:10.890Z,74.59
2017-12-03T09:12:45.126Z,74.30
2017-12-03T09:15:19.191Z,74.28
2017-12-03T09:17:53.402Z,74.45
2017-12-03T09:20:27.831Z,73.82
2017-12-03T09:23:01.983Z,73.86
2017-12-03T09:25:36.092Z,73.74
2017-12-03T09:28:10.125Z,73.63
2017-12-03T09:30:44.390Z,73.30
2017-12-03T09:33:18.642Z,73.18
2017-12-03T09:35:52.698Z,72.95
2017-12-03T09:38:26.863Z,72.20
2017-12-03T09:41:00.730Z,71.88
2017-12-03T09:43:34.775Z,71.89
2017-12-03T09:46:08.818Z,70.91
2017-12-03T09:48:42.970Z,70.36
2017-12-03T09:51:17.120Z,69.30
2017-12-03T09:53:51.175Z,69.18
2017-12-03T09:56:25.086Z,68.26
2017-12-03T09:58:59.254Z,69.66
2017-12-03T10:01:33.845Z,68.55
2017-12-03T10:04:08.086Z,65.89
2017-12-03T10:06:42.238Z,63.89
2017-12-03T10:09:16.286Z,63.33
2017-12-03T10:11:50.639Z,62.14
2017-12-03T10:14:24.916Z,64.61
2017-12-03T10:16:59.321Z,65.47
2017-12-03T10:19:33.504Z,66.56
2017-12-03T10:22:07.512Z,66.78
2017-12-03T10:24:41.857Z,66.86
2017-12-03T10:27:16.162Z,67.78
2017-12-03T10:29:50.346Z,67.94
2017-12-03T10:32:24.483Z,68.01
2017-12-03T10:34:58.646Z,66.70
2017-12-03T10:37:32.836Z,66.70
2017-12-03T10:40:15.268Z,66.05
2017-12-03T10:42:49.742Z,66.60
2017-12-03T10:45:24.098Z,66.58
2017-12-03T10:47:58.633Z,66.56
2017-12-03T10:50:33.232Z,66.52
2017-12-03T10:53:07.797Z,65.66
2017-12-03T10:55:42.220Z,65.78
2017-12-03T10:58:16.730Z,65.34
2017-12-03T11:00:51.084Z,64.49
2017-12-03T11:03:25.535Z,63.87
2017-12-03T11:06:00.279Z,64.72
2017-12-03T11:08:34.456Z,64.35
2017-12-03T11:11:08.938Z,64.82
2017-12-03T11:13:43.442Z,63.31
2017-12-03T11:16:17.809Z,63.94
2017-12-03T11:18:52.281Z,64.69
2017-12-03T11:21:26.765Z,65.22
2017-12-03T11:24:01.221Z,65.54
2017-12-03T11:26:35.611Z,65.41
2017-12-03T11:29:09.958Z,65.22
2017-12-03T11:31:44.489Z,65.63
2017-12-03T11:34:18.892Z,66.11
2017-12-03T11:36:53.151Z,65.97
2017-12-03T11:39:27.606Z,65.56
2017-12-03T11:42:01.995Z,65.86
2017-12-03T11:44:36.482Z,64.88
2017-12-03T11:47:10.857Z,65.34
2017-12-03T11:49:45.362Z,64.51
2017-12-03T11:52:19.794Z,64.83
2017-12-03T11:54:54.278Z,63.94
2017-12-03T11:57:28.795Z,63.75
2017-12-03T12:02:43.747Z,62.90
2017-12-03T12:05:18.190Z,64.31
2017-12-03T12:07:52.668Z,64.39
2017-12-03T12:10:27.032Z,64.74
2017-12-03T12:13:01.534Z,64.71
2017-12-03T12:15:35.831Z,65.16
2017-12-03T12:18:10.324Z,65.23
2017-12-03T12:20:44.706Z,64.84
2017-12-03T12:23:19.185Z,64.45
2017-12-03T12:25:53.358Z,65.02
2017-12-03T12:28:27.968Z,63.88
2017-12-03T12:31:02.358Z,63.99
2017-12-03T12:33:36.837Z,64.26
2017-12-03T12:36:11.225Z,63.48
2017-12-03T12:38:45.773Z,63.59
2017-12-03T12:41:20.141Z,63.78
2017-12-03T12:43:54.530Z,64.51
2017-12-03T12:46:28.907Z,64.49
2017-12-03T12:49:03.431Z,63.41
2017-12-03T12:51:37.455Z,63.54
2017-12-03T12:54:11.914Z,63.88
2017-12-03T12:56:46.013Z,64.32
2017-12-03T12:59:20.489Z,66.59
2017-12-03T13:01:55.079Z,68.08
2017-12-03T13:04:29.650Z,71.88
2017-12-03T13:07:04.097Z,72.99
2017-12-03T13:09:38.604Z,73.33
2017-12-03T13:12:13.084Z,73.30
2017-12-03T13:14:47.574Z,73.37
2017-12-03T13:17:22.018Z,73.35
2017-12-03T13:19:56.518Z,73.50
2017-12-03T13:22:30.878Z,73.52
2017-12-03T13:25:07.853Z,73.26
2017-12-03T13:27:42.280Z,73.10
2017-12-03T13:30:16.740Z,73.85
2017-12-03T13:32:51.223Z,73.21
2017-12-03T13:35:25.996Z,73.08
2017-12-03T13:38:00.226Z,72.77
2017-12-03T13:40:34.797Z,72.71
2017-12-03T13:43:09.314Z,72.84
2017-12-03T13:45:43.702Z,72.32
2017-12-03T13:48:18.289Z,72.02
2017-12-03T13:50:52.674Z,71.89
2017-12-03T13:53:27.018Z,72.37
2017-12-03T13:56:01.374Z,71.91
2017-12-03T13:58:35.458Z,71.55
2017-12-03T14:01:09.905Z,71.56
2017-12-03T14:03:44.247Z,71.48
2017-12-03T14:06:18.714Z,71.37
2017-12-03T14:08:53.106Z,71.55
2017-12-03T14:11:27.685Z,71.97
2017-12-03T14:14:02.871Z,72.09
2017-12-03T14:16:37.410Z,72.23
2017-12-03T14:19:11.755Z,72.88
2017-12-03T14:21:46.038Z,72.93
2017-12-03T14:24:20.438Z,73.19
2017-12-03T14:26:54.832Z,73.43
2017-12-03T14:29:29.150Z,73.59
2017-12-03T14:32:03.280Z,74.22
2017-12-03T14:34:37.838Z,74.30
2017-12-03T14:37:12.291Z,74.17
2017-12-03T14:39:46.778Z,74.29
2017-12-03T14:42:20.954Z,74.29
2017-12-03T14:44:55.286Z,73.99
2017-12-03T14:47:29.474Z,74.35
2017-12-03T14:50:07.586Z,74.07
2017-12-03T14:52:42.072Z,74.09
2017-12-03T14:55:16.505Z,74.36
2017-12-03T14:57:50.898Z,74.29
2017-12-03T15:00:25.658Z,73.88
2017-12-03T15:03:00.122Z,73.60
2017-12-03T15:05:34.262Z,73.92
2017-12-03T15:08:08.790Z,73.63
2017-12-03T15:10:43.174Z,73.82
2017-12-03T15:13:19.007Z,73.54
2017-12-03T15:15:53.035Z,73.61
2017-12-03T15:18:27.202Z,73.55
2017-12-03T15:21:01.382Z,73.56
2017-12-03T15:23:35.562Z,73.12
2017-12-03T15:26:09.706Z,73.46
2017-12-03T15:28:43.682Z,73.28
2017-12-03T15:31:17.706Z,72.93
2017-12-03T15:33:51.981Z,73.37
2017-12-03T15:36:25.995Z,73.59
2017-12-03T15:39:00.048Z,73.56
2017-12-03T15:41:34.173Z,74.39
2017-12-03T15:44:08.534Z,74.72
2017-12-03T15:46:42.699Z,74.85
2017-12-03T15:49:16.548Z,75.07
2017-12-03T15:51:50.520Z,74.73
2017-12-03T15:54:24.716Z,74.70
2017-12-03T15:56:58.894Z,74.42
2017-12-03T15:59:33.299Z,74.33
2017-12-03T16:02:07.229Z,74.01
2017-12-03T16:04:41.334Z,74.27
2017-12-03T16:07:15.350Z,74.43
2017-12-03T16:09:49.922Z,73.91
2017-12-03T16:12:23.982Z,74.23
2017-12-03T16:14:58.114Z,73.60
2017-12-03T16:17:32.168Z,73.44
2017-12-03T16:20:07.380Z,72.28
2017-12-03T16:22:41.738Z,72.69
2017-12-03T16:25:16.188Z,72.14
2017-12-03T16:27:50.341Z,71.71
2017-12-03T16:30:24.306Z,71.33
2017-12-03T16:32:59.075Z,70.78
2017-12-03T16:35:33.359Z,71.07
2017-12-03T16:38:07.527Z,69.90
2017-12-03T16:40:41.916Z,70.48
2017-12-03T16:43:16.086Z,69.56
2017-12-03T16:45:50.123Z,69.88
2017-12-03T16:48:24.313Z,69.10
2017-12-03T16:50:58.734Z,68.81
2017-12-03T16:53:33.333Z,68.90
2017-12-03T16:56:07.714Z,68.16
2017-12-03T16:58:42.154Z,67.61
2017-12-03T17:01:16.352Z,67.45
2017-12-03T17:03:50.846Z,67.88
2017-12-03T17:06:25.277Z,67.85
2017-12-03T17:08:59.731Z,68.36
2017-12-03T17:11:34.168Z,68.87
2017-12-03T17:14:08.874Z,69.17
2017-12-03T17:16:43.347Z,69.11
2017-12-03T17:19:17.855Z,69.22
2017-12-03T17:21:51.971Z,69.49
2017-12-03T17:24:26.546Z,68.97
2017-12-03T17:27:00.427Z,69.07
2017-12-03T17:29:34.643Z,69.23
2017-12-03T17:32:08.710Z,69.31
2017-12-03T17:34:43.166Z,68.95
2017-12-03T17:37:17.332Z,68.84
2017-12-03T17:39:51.846Z,68.94
2017-12-03T17:42:26.354Z,68.83
2017-12-03T17:45:00.930Z,68.32
2017-12-03T17:47:35.353Z,68.19
2017-12-03T17:50:11.670Z,68.09
2017-12-03T17:52:46.098Z,67.71
2017-12-03T17:55:20.578Z,66.99
2017-12-03T17:57:55.058Z,66.29
2017-12-03T18:00:29.222Z,66.35
2017-12-03T18:03:03.811Z,66.15
2017-12-03T18:05:38.255Z,65.77
2017-12-03T18:08:12.844Z,65.45
2017-12-03T18:10:47.274Z,64.81
2017-12-03T18:13:21.783Z,65.36
2017-12-03T18:15:56.167Z,64.70
2017-12-03T18:18:30.654Z,63.61
2017-12-03T18:21:05.024Z,63.64
2017-12-03T18:23:39.508Z,64.01
2017-12-03T18:26:13.559Z,63.67
2017-12-03T18:28:48.145Z,63.96
2017-12-03T18:31:22.602Z,63.95
2017-12-03T18:33:57.115Z,64.12
2017-12-03T18:36:31.570Z,64.39
2017-12-03T18:39:06.194Z,64.79
2017-12-03T18:41:40.398Z,64.62
2017-12-03T18:44:14.701Z,64.25
2017-12-03T18:46:48.665Z,64.40
2017-12-03T18:49:22.974Z,64.24
2017-12-03T18:51:57.150Z,63.85
2017-12-03T18:54:31.699Z,63.08
2017-12-03T18:57:06.021Z,63.43
2017-12-03T18:59:40.058Z,62.83
2017-12-03T19:02:14.329Z,62.94
2017-12-03T19:04:48.978Z,62.64
2017-12-03T19:07:23.402Z,62.03
2017-12-03T19:09:57.864Z,62.29
2017-12-03T19:12:32.242Z,62.45
2017-12-03T19:15:07.934Z,61.86
2017-12-03T19:17:42.421Z,61.09
2017-12-03T19:20:16.468Z,61.25
2017-12-03T19:22:50.621Z,61.13
2017-12-03T19:25:25.010Z,61.21
2017-12-03T19:28:00.231Z,61.18
2017-12-03T19:30:34.718Z,61.75
2017-12-03T19:33:09.277Z,61.76
2017-12-03T19:35:43.722Z,62.01
2017-12-03T19:38:18.221Z,61.70
2017-12-03T19:40:52.578Z,62.03
2017-12-03T19:43:26.818Z,62.17
2017-12-03T19:46:01.171Z,62.31
2017-12-03T19:48:35.669Z,62.75
2017-12-03T19:51:09.724Z,62.84
2017-12-03T19:53:44.195Z,62.97
2017-12-03T19:56:18.644Z,62.93
2017-12-03T19:58:53.218Z,62.91
2017-12-03T20:01:27.826Z,63.04
2017-12-03T20:04:02.346Z,63.13
2017-12-03T20:06:36.362Z,63.12
2017-12-03T20:09:10.889Z,62.80
2017-12-03T20:11:45.302Z,63.41
2017-12-03T20:14:19.826Z,63.19
2017-12-03T20:16:54.190Z,63.50
2017-12-03T20:19:28.770Z,63.07
2017-12-03T20:22:03.134Z,62.75
2017-12-03T20:24:37.618Z,63.39
2017-12-03T20:27:11.979Z,63.58
2017-12-03T20:29:46.360Z,63.65
2017-12-03T20:32:20.533Z,64.07
2017-12-03T20:34:54.666Z,63.78
2017-12-03T20:37:28.935Z,64.53
2017-12-03T20:40:02.967Z,64.93
2017-12-03T20:42:37.154Z,64.99
2017-12-03T20:45:13.235Z,65.41
2017-12-03T20:47:47.272Z,65.66
2017-12-03T20:50:21.473Z,66.03
2017-12-03T20:52:55.742Z,65.64
2017-12-03T20:55:30.138Z,65.80
2017-12-03T20:58:04.585Z,65.64
2017-12-03T21:00:38.699Z,66.09
2017-12-03T21:03:13.430Z,66.31
2017-12-03T21:05:47.887Z,66.16
2017-12-03T21:08:22.046Z,65.99
2017-12-03T21:10:56.410Z,66.31
2017-12-03T21:13:30.895Z,66.34
2017-12-03T21:16:05.338Z,66.21
2017-12-03T21:18:39.590Z,66.24
2017-12-03T21:21:13.609Z,65.79
2017-12-03T21:23:47.998Z,66.29
2017-12-03T21:26:22.365Z,65.85
2017-12-03T21:28:56.943Z,65.85
2017-12-03T21:31:30.978Z,65.89
2017-12-03T21:34:05.785Z,66.23
2017-12-03T21:36:41.054Z,66.15
2017-12-03T21:39:15.262Z,66.00
2017-12-03T21:41:49.570Z,65.92
2017-12-03T21:44:24.056Z,65.95
2017-12-03T21:46:58.454Z,66.06
2017-12-03T21:49:32.941Z,66.01
2017-12-03T21:52:07.609Z,66.01
2017-12-03T21:54:42.146Z,66.41
2017-12-03T21:57:16.331Z,66.38
2017-12-03T21:59:50.914Z,66.57
2017-12-03T22:02:25.358Z,66.49
2017-12-03T22:04:59.663Z,65.96
2017-12-03T22:07:33.996Z,66.34
2017-12-03T22:10:13.743Z,66.38
2017-12-03T22:12:48.107Z,66.02
2017-12-03T22:15:22.477Z,65.11
2017-12-03T22:17:56.946Z,65.02
2017-12-03T22:20:31.372Z,65.07
2017-12-03T22:23:05.942Z,64.95
2017-12-03T22:25:40.306Z,64.20
2017-12-03T22:28:14.813Z,64.32
2017-12-03T22:30:49.170Z,64.28
2017-12-03T22:33:23.779Z,64.00
2017-12-03T22:35:58.345Z,63.68
2017-12-03T22:38:32.928Z,63.81
2017-12-03T22:41:07.377Z,63.21
2017-12-03T22:43:41.891Z,63.53
2017-12-03T22:46:16.950Z,63.16
2017-12-03T22:48:51.450Z,63.26
2017-12-03T22:51:25.894Z,63.00
2017-12-03T22:54:00.409Z,62.55
2017-12-03T22:56:34.774Z,62.39
2017-12-03T22:59:09.518Z,62.19
2017-12-03T23:01:44.449Z,62.42
2017-12-03T23:04:18.322Z,61.69
2017-12-03T23:06:52.855Z,61.69
2017-12-03T23:09:27.310Z,61.55
2017-12-03T23:12:01.702Z,61.95
2017-12-03T23:14:36.260Z,62.08
2017-12-03T23:17:10.418Z,62.00
2017-12-03T23:19:44.766Z,62.09
2017-12-03T23:22:19.202Z,61.57
2017-12-03T23:24:53.694Z,61.68
2017-12-03T23:27:27.859Z,61.54
2017-12-03T23:30:02.794Z,62.00
2017-12-03T23:32:37.291Z,61.99
2017-12-03T23:35:11.750Z,62.49
2017-12-03T23:37:45.922Z,62.40
2017-12-03T23:40:20.281Z,62.59
2017-12-03T23:42:54.660Z,62.26
2017-12-03T23:45:28.846Z,63.01
2017-12-03T23:48:03.342Z,62.82
2017-12-03T23:50:37.389Z,62.90
2017-12-03T23:53:11.886Z,62.86
2017-12-03T23:55:46.383Z,63.13
2017-12-03T23:58:20.573Z,63.37
